Lafayette, TN

8:05 AM CDT on June 30, 2015 (GMT -0500)
KTNLAFAY2 | | Change Station
CLOSE
Current Station
Personal Weather Station
Location: Lafayette, TN
Elevation: 922 ft
Nearby Weather Stations

Elev 922 ft 36.57 °N, 86.06 °W | Updated 18 seconds ago

Partly Cloudy
Partly Cloudy
74.2 °F
Feels Like 74 °F
N
2.7
Wind Variable Wind from SW
Gusts 3.4 mph

Today
High -- | Low -- °F
--% Chance of Precip.
Yesterday
High -- | Low -- °F
Precip. -- in
5:29 AM 8:06 PM
Waxing Gibbous, 97% visible
Pressure 29.94 in
Visibility 7.0 miles
Clouds Mostly Cloudy 500 ft
Mostly Cloudy 4900 ft
Heat Index 74 °F
Dew Point 69 °F
Humidity 85%
Rainfall in
Snow Depth Not available.
UV 1 out of 12
Pollen 3.30 out of 12
Air Quality Not available.
Flu Activity Sporadic
METAR KGLW 301255Z AUTO 30003KT 7SM BKN005 BKN049 21/21 A2994 RMK AO2 T02100210

More Conditions Fewer Conditions

Pressure 29.94 in
Visibility 7.0 miles
Clouds Mostly Cloudy 500 ft
Mostly Cloudy 4900 ft
Heat Index 74 °F
Dew Point 69 °F
Humidity 85%
Rainfall in
Snow Depth Not available.
UV 1 out of 12
Pollen 3.30 out of 12
Air Quality Not available.
Flu Activity Sporadic
METAR KGLW 301255Z AUTO 30003KT 7SM BKN005 BKN049 21/21 A2994 RMK AO2 T02100210

More Conditions Fewer Conditions

10-Day Weather Forecast

×

Almanac

Astronomy

Jun. 30, 2015 Rise Set
Actual Time
Civil Twilight
Nautical Twilight
Astronomical Twilight
Moon
Length of Visible Light
Length of Day
Tomorrow will be .
, % of the Moon is Illuminated

Today's Extremes

State Highs State Lows

Community

WunderPhotos

Upload Photos

1,833,990 photos uploaded!

WunderBlogs® & News

Nearby

Air Quality

  Air Quality AQ Index Pollutant
Not available.

Snow Depth

Station Depth Elevation

Earthquake Activity

City Distance Mag. Time & Date
Minimum magnitude displayed is 2.5.

Coastal Water Temperatures

Place Temperature

Stations

Nearby Weather Stations

Station Location Temp. Windchill Dew Point Humidity Wind Precip. Elev Updated Type